LFTW/FNI METAR and TAF weather

Enter ICAO airport designator
Station Type Date Time Source
LFTW METAR 2019/06/27 10:00 UTC NOAA

LFTW 271000Z AUTO VRB03KT CAVOK 36/18 Q1021 NOSIG


Station Type Date Time Source
LFTW Decoded METAR 2019/06/27 10:00 UTC NOAA

Nimes / Garons, France (LFTW) 43-45N 004-25E 96M
Jun 27, 2019 - 06:00 AM EDT / 2019.06.27 1000 UTC
Wind: Variable at 3 MPH (3 KT):0
Visibility: greater than 7 mile(s):0
Temperature: 96 F (36 C)
Heat index: 97.7 F (36.5 C):1
Dew Point: 64 F (18 C)
Relative Humidity: 34%
Pressure (altimeter): 30.15 in. Hg (1021 hPa)
ob: LFTW 271000Z AUTO VRB03KT CAVOK 36/18 Q1021 NOSIG
cycle: 10

Station Type Date Time Source
LFTW TAF 2019/06/27 09:45 UTC NOAA

TAF LFTW 270800Z 2709/2809 VRB05KT CAVOK
TEMPO 2711/2720 23010KT

Example: see airport list